Time;durP1;ratioP1;P1;durP2;ratioP2;P2;SDS_P1;SDS_P2;PMS_P1;PMS_P2;Temp;Humidity;BMP_temperature;BMP_pressure;BME280_temperature;BME280_humidity;BME280_pressure;Samples;Min_cycle;Max_cycle;Signal;HPM_P1;HPM_P2
2021/08/30 08:06:40;;;;;;;11.30;5.07;;;18.00;99.90;;;;;;6307805;22;20375;-81
2021/08/30 08:09:07;;;;;;;9.00;4.50;;;18.10;99.90;;;;;;6307640;22;20205;-81
2021/08/30 08:11:33;;;;;;;9.87;5.03;;;18.10;99.90;;;;;;6307473;22;20233;-80
2021/08/30 08:14:00;;;;;;;8.73;4.53;;;18.10;99.90;;;;;;6307743;22;20174;-80
2021/08/30 08:16:27;;;;;;;10.37;4.60;;;18.20;99.90;;;;;;6307499;22;20477;-80
2021/08/30 08:18:54;;;;;;;8.97;5.03;;;18.00;99.90;;;;;;6307935;22;20178;-80
2021/08/30 08:21:21;;;;;;;10.57;4.20;;;17.90;99.90;;;;;;6307365;22;20517;-82
2021/08/30 08:23:53;;;;;;;13.23;4.70;;;18.10;99.90;;;;;;6307647;22;20174;-77
2021/08/30 08:26:20;;;;;;;7.80;4.30;;;18.10;99.90;;;;;;6307690;22;20174;-80
2021/08/30 08:28:47;;;;;;;8.30;4.40;;;18.20;99.90;;;;;;6307780;22;20206;-82
2021/08/30 08:31:14;;;;;;;7.73;4.63;;;18.30;99.90;;;;;;6307148;22;20197;-81
2021/08/30 08:33:41;;;;;;;8.10;4.43;;;18.40;99.90;;;;;;6308009;22;20178;-82
2021/08/30 08:36:08;;;;;;;10.07;4.60;;;18.40;99.90;;;;;;6307678;22;20174;-81
2021/08/30 08:38:35;;;;;;;8.87;5.00;;;18.30;99.90;;;;;;6307558;22;20188;-81
2021/08/30 08:41:04;;;;;;;9.80;5.00;;;18.20;99.90;;;;;;6307699;22;20194;-81
2021/08/30 08:43:31;;;;;;;6.67;4.23;;;18.40;99.90;;;;;;6307541;22;20174;-81
2021/08/30 08:45:58;;;;;;;8.17;4.37;;;18.70;99.90;;;;;;6307871;22;20489;-78
2021/08/30 08:48:26;;;;;;;8.98;4.65;;;18.90;99.90;;;;;;6307463;22;20671;-78
2021/08/30 08:50:54;;;;;;;8.02;4.75;;;18.90;99.90;;;;;;6308381;22;20184;-81
2021/08/30 08:53:21;;;;;;;9.33;4.23;;;18.70;99.90;;;;;;6308510;22;20174;-82
2021/08/30 08:55:48;;;;;;;8.93;4.73;;;18.60;99.90;;;;;;6307823;22;20174;-82
2021/08/30 08:58:19;;;;;;;7.30;4.10;;;18.60;99.90;;;;;;6308213;22;20177;-78
2021/08/30 09:01:00;;;;;;;8.85;4.75;;;18.90;99.90;;;;;;6308007;22;20174;-82
2021/08/30 09:03:27;;;;;;;7.63;4.47;;;19.20;99.90;;;;;;6308230;22;20180;-78
2021/08/30 09:06:01;;;;;;;8.38;4.95;;;19.50;99.90;;;;;;6307198;22;20186;-81
2021/08/30 09:08:30;;;;;;;9.18;4.80;;;19.60;99.90;;;;;;6307307;22;20207;-82
2021/08/30 09:10:57;;;;;;;9.63;4.32;;;19.60;99.90;;;;;;6307793;22;20747;-81
2021/08/30 09:13:28;;;;;;;10.95;4.78;;;19.70;99.90;;;;;;6307621;22;20185;-81
2021/08/30 09:15:55;;;;;;;8.90;4.43;;;19.70;99.90;;;;;;6307362;22;20624;-80
2021/08/30 09:18:27;;;;;;;9.23;4.97;;;19.70;99.90;;;;;;6307368;22;20212;-80
2021/08/30 09:20:54;;;;;;;6.32;3.80;;;19.90;99.90;;;;;;6307523;22;20232;-81
2021/08/30 09:23:21;;;;;;;6.30;4.18;;;20.00;99.90;;;;;;6307778;22;20174;-83
2021/08/30 09:25:48;;;;;;;8.82;4.32;;;20.00;99.90;;;;;;6307666;22;20224;-81
2021/08/30 09:28:15;;;;;;;9.20;4.38;;;20.10;99.90;;;;;;6307470;22;20212;-80
2021/08/30 09:30:53;;;;;;;8.45;4.50;;;20.00;99.90;;;;;;6307583;22;20540;-83
2021/08/30 09:33:20;;;;;;;11.35;4.63;;;20.00;99.90;;;;;;6307480;22;20441;-82
2021/08/30 09:35:56;;;;;;;6.93;4.03;;;20.20;99.90;;;;;;6307421;22;20180;-82
2021/08/30 09:38:24;;;;;;;6.05;3.65;;;20.40;99.90;;;;;;6307644;22;20216;-82
2021/08/30 09:40:51;;;;;;;6.82;4.47;;;20.90;99.90;;;;;;6307558;22;20174;-81
2021/08/30 09:43:19;;;;;;;5.95;3.88;;;21.10;99.90;;;;;;6308990;22;20178;-78
2021/08/30 09:45:48;;;;;;;8.13;4.40;;;21.10;99.90;;;;;;6309058;22;20178;-81
2021/08/30 09:48:24;;;;;;;9.48;4.22;;;21.00;99.90;;;;;;6308744;22;20198;-82
2021/08/30 09:50:51;;;;;;;7.93;3.97;;;20.80;99.90;;;;;;6309151;22;20257;-80
2021/08/30 09:53:18;;;;;;;10.30;4.82;;;20.70;99.90;;;;;;6309373;22;20180;-81
2021/08/30 09:55:45;;;;;;;7.15;3.95;;;20.40;99.90;;;;;;6309509;22;20550;-82
2021/08/30 09:58:15;;;;;;;10.10;4.43;;;20.40;99.90;;;;;;6309510;22;20642;-80
2021/08/30 10:00:44;;;;;;;8.82;4.55;;;20.50;99.90;;;;;;6309087;22;20216;-81
2021/08/30 10:03:13;;;;;;;8.55;4.05;;;20.70;99.90;;;;;;6308835;22;20182;-80
2021/08/30 10:05:42;;;;;;;8.07;4.07;;;20.50;99.90;;;;;;6308953;22;20654;-81
2021/08/30 10:08:09;;;;;;;8.57;4.35;;;20.40;99.90;;;;;;6309295;22;20206;-79
2021/08/30 10:10:36;;;;;;;6.30;4.13;;;20.50;99.90;;;;;;6309620;22;20178;-80
2021/08/30 10:13:03;;;;;;;7.38;3.75;;;20.40;99.90;;;;;;6308730;22;20620;-79
2021/08/30 10:15:30;;;;;;;7.45;4.43;;;20.50;99.90;;;;;;6310687;22;20180;-82
2021/08/30 10:17:58;;;;;;;8.18;3.90;;;20.70;99.90;;;;;;6309127;22;20180;-82
2021/08/30 10:20:28;;;;;;;8.00;4.45;;;20.70;99.90;;;;;;6309200;22;20178;-80
2021/08/30 10:22:57;;;;;;;9.23;4.10;;;20.80;99.90;;;;;;6308858;22;20198;-81
2021/08/30 10:25:24;;;;;;;7.65;3.80;;;21.10;99.90;;;;;;6309242;22;20184;-81
2021/08/30 10:27:57;;;;;;;7.88;3.80;;;21.20;99.90;;;;;;6309118;22;20200;-81
2021/08/30 10:30:24;;;;;;;9.52;4.22;;;21.10;99.90;;;;;;6308429;22;20188;-82
2021/08/30 10:32:55;;;;;;;6.43;4.28;;;21.00;99.90;;;;;;6309167;22;20217;-80
2021/08/30 10:35:24;;;;;;;6.53;4.03;;;20.90;99.90;;;;;;6308955;22;20184;-79
2021/08/30 10:37:56;;;;;;;6.20;3.88;;;21.00;99.90;;;;;;6309277;22;20180;-81
2021/08/30 10:40:24;;;;;;;8.15;3.78;;;21.10;99.90;;;;;;6309267;22;20178;-78
2021/08/30 10:43:00;;;;;;;8.20;3.72;;;21.30;99.90;;;;;;6309032;22;20194;-80
2021/08/30 10:45:31;;;;;;;7.47;3.65;;;21.60;99.90;;;;;;6308793;22;20174;-81
2021/08/30 10:48:00;;;;;;;5.85;3.42;;;21.60;99.90;;;;;;6308866;22;20252;-79
2021/08/30 10:50:27;;;;;;;6.68;3.47;;;21.60;99.90;;;;;;6308681;22;20200;-79
2021/08/30 10:53:05;;;;;;;6.22;3.83;;;21.70;99.90;;;;;;6308902;22;20194;-80
2021/08/30 10:55:38;;;;;;;7.68;3.90;;;22.10;99.90;;;;;;6308809;22;20174;-80
2021/08/30 10:58:12;;;;;;;8.55;3.78;;;22.10;99.90;;;;;;6308500;22;20261;-77
2021/08/30 11:00:39;;;;;;;6.03;3.67;;;22.00;99.90;;;;;;6308682;22;20173;-77
2021/08/30 11:03:06;;;;;;;7.72;3.70;;;21.90;99.90;;;;;;6308488;22;20174;-78
2021/08/30 11:05:33;;;;;;;6.97;3.72;;;21.70;99.90;;;;;;6308374;22;20182;-76
2021/08/30 11:08:00;;;;;;;6.22;3.40;;;21.80;99.90;;;;;;6308386;22;20181;-79
2021/08/30 11:10:28;;;;;;;9.68;3.95;;;22.00;99.90;;;;;;6308633;22;20205;-78
2021/08/30 11:12:56;;;;;;;5.20;3.58;;;22.00;99.90;;;;;;6308734;22;20232;-79
2021/08/30 11:15:22;;;;;;;6.30;3.58;;;21.80;99.90;;;;;;6308648;22;20174;-80
2021/08/30 11:17:49;;;;;;;6.93;4.03;;;21.80;99.90;;;;;;6308698;22;20174;-80
2021/08/30 11:20:17;;;;;;;6.85;3.78;;;21.80;99.90;;;;;;6308649;22;20209;-78
2021/08/30 11:22:51;;;;;;;5.72;3.55;;;21.80;99.90;;;;;;6308330;22;20738;-79
2021/08/30 11:25:18;;;;;;;6.57;3.95;;;22.00;99.90;;;;;;6308900;22;20503;-76
2021/08/30 11:27:46;;;;;;;7.22;4.03;;;22.10;99.90;;;;;;6309989;22;20560;-78
2021/08/30 11:30:14;;;;;;;6.78;3.75;;;22.20;99.90;;;;;;6308370;22;20206;-78
2021/08/30 11:32:42;;;;;;;7.45;3.65;;;22.20;99.90;;;;;;6307763;22;20194;-79
2021/08/30 11:35:13;;;;;;;8.23;3.63;;;22.00;99.90;;;;;;6307932;22;20265;-79
2021/08/30 11:37:40;;;;;;;5.47;3.53;;;21.60;99.90;;;;;;6308241;22;20260;-80
2021/08/30 11:40:09;;;;;;;6.53;3.50;;;21.80;99.90;;;;;;6308161;22;20178;-80
2021/08/30 11:42:36;;;;;;;5.88;3.47;;;22.00;99.90;;;;;;6306234;22;20194;-80
2021/08/30 11:45:06;;;;;;;5.55;3.63;;;22.10;99.90;;;;;;6306354;22;20174;-78
2021/08/30 11:47:42;;;;;;;7.20;3.38;;;22.30;99.90;;;;;;6308260;22;20196;-80
2021/08/30 11:50:11;;;;;;;5.85;3.40;;;22.40;99.90;;;;;;6307165;22;20300;-80
2021/08/30 11:52:40;;;;;;;6.97;3.78;;;22.40;99.90;;;;;;6308095;22;20226;-81
2021/08/30 11:55:09;;;;;;;7.47;3.63;;;22.40;99.90;;;;;;6307866;22;20174;-80
2021/08/30 11:57:42;;;;;;;6.72;3.65;;;22.60;99.90;;;;;;6307696;22;20177;-81
2021/08/30 12:00:14;;;;;;;5.50;3.53;;;22.70;99.90;;;;;;6307736;22;20232;-80
2021/08/30 12:02:41;;;;;;;6.95;3.70;;;22.80;99.90;;;;;;6307616;22;20194;-80
2021/08/30 12:05:09;;;;;;;8.77;3.55;;;22.80;99.90;;;;;;6306932;22;20188;-80
2021/08/30 12:07:37;;;;;;;6.18;3.83;;;22.60;99.90;;;;;;6307552;22;20201;-80
2021/08/30 12:10:07;;;;;;;7.82;4.18;;;22.40;99.90;;;;;;6307876;22;20213;-80
2021/08/30 12:12:36;;;;;;;6.00;3.60;;;22.10;99.90;;;;;;6307910;22;20232;-78
2021/08/30 12:15:06;;;;;;;7.32;3.78;;;21.90;99.90;;;;;;6308257;22;20185;-79
2021/08/30 12:17:37;;;;;;;9.95;3.90;;;21.80;99.90;;;;;;6307851;22;20174;-81
2021/08/30 12:20:07;;;;;;;7.18;3.85;;;21.70;99.90;;;;;;6307739;22;20174;-78
2021/08/30 12:22:36;;;;;;;5.93;4.00;;;21.70;99.90;;;;;;6307703;22;20194;-78
2021/08/30 12:25:06;;;;;;;7.50;4.28;;;21.70;99.90;;;;;;6307480;22;20261;-80
2021/08/30 12:27:34;;;;;;;7.72;3.65;;;21.30;99.90;;;;;;6307604;22;20181;-80
2021/08/30 12:30:13;;;;;;;7.47;3.90;;;21.40;99.90;;;;;;6308102;22;20206;-78
2021/08/30 12:32:56;;;;;;;6.90;3.80;;;21.40;99.90;;;;;;6307071;22;20268;-79
2021/08/30 12:35:25;;;;;;;6.45;3.95;;;21.50;99.90;;;;;;6307118;22;20178;-77
2021/08/30 12:37:53;;;;;;;8.13;4.03;;;21.70;99.90;;;;;;6307480;22;20569;-78
2021/08/30 12:40:21;;;;;;;5.97;3.78;;;22.00;99.90;;;;;;6307756;22;20178;-78
2021/08/30 12:42:48;;;;;;;9.13;3.95;;;22.30;99.90;;;;;;6308057;22;20225;-78
2021/08/30 12:45:15;;;;;;;7.53;4.28;;;22.40;99.90;;;;;;6308073;22;20181;-80
2021/08/30 12:47:42;;;;;;;5.50;3.75;;;22.50;99.90;;;;;;6308239;22;20174;-79
2021/08/30 12:50:12;;;;;;;7.15;3.40;;;22.60;99.90;;;;;;6307102;22;20208;-79
2021/08/30 12:52:39;;;;;;;6.50;3.28;;;22.50;99.90;;;;;;6307748;22;20193;-79
2021/08/30 12:55:07;;;;;;;6.85;3.95;;;22.20;99.90;;;;;;6307845;22;20261;-80
2021/08/30 12:57:35;;;;;;;10.95;3.45;;;22.10;99.90;;;;;;6308206;22;20174;-77
2021/08/30 13:00:02;;;;;;;7.63;3.42;;;21.90;99.90;;;;;;6307336;22;20496;-78
2021/08/30 13:02:29;;;;;;;5.40;3.40;;;21.90;99.90;;;;;;6307800;22;20201;-80
2021/08/30 13:04:56;;;;;;;7.45;3.78;;;21.60;99.90;;;;;;6307342;22;20184;-79
2021/08/30 13:07:25;;;;;;;6.32;3.70;;;21.70;99.90;;;;;;6307419;22;20173;-76
2021/08/30 13:09:54;;;;;;;7.30;3.97;;;21.90;99.90;;;;;;6307495;22;20244;-81
2021/08/30 13:12:21;;;;;;;5.00;3.15;;;22.00;99.90;;;;;;6307137;22;20517;-81
2021/08/30 13:14:48;;;;;;;5.85;3.40;;;22.00;99.90;;;;;;6307421;22;20180;-79
2021/08/30 13:17:14;;;;;;;6.05;3.50;;;22.10;99.90;;;;;;6308737;22;20178;-77
2021/08/30 13:19:41;;;;;;;5.93;3.42;;;22.30;99.90;;;;;;6308949;22;20181;-78
2021/08/30 13:22:08;;;;;;;5.10;3.25;;;22.40;99.90;;;;;;6309416;22;20205;-79
2021/08/30 13:24:39;;;;;;;5.00;3.00;;;22.30;99.90;;;;;;6309339;22;20256;-77
2021/08/30 13:27:06;;;;;;;5.68;3.40;;;22.50;99.90;;;;;;6310498;22;20257;-77
2021/08/30 13:29:32;;;;;;;6.03;3.28;;;22.50;99.90;;;;;;6309393;22;20204;-78
2021/08/30 13:31:59;;;;;;;5.22;3.00;;;22.60;99.90;;;;;;6309745;22;20194;-80
2021/08/30 13:34:27;;;;;;;5.38;2.85;;;22.70;99.90;;;;;;6309671;22;20344;-79
2021/08/30 13:36:54;;;;;;;5.10;2.75;;;22.90;99.90;;;;;;6309617;22;20174;-80
2021/08/30 13:39:21;;;;;;;4.93;2.55;;;23.00;99.90;;;;;;6309665;22;20178;-82
2021/08/30 13:41:49;;;;;;;4.78;2.60;;;22.90;99.90;;;;;;6309538;22;20200;-80
2021/08/30 13:44:16;;;;;;;3.80;2.72;;;22.90;99.90;;;;;;6309427;22;20177;-80
2021/08/30 13:46:43;;;;;;;6.43;3.08;;;22.80;99.90;;;;;;6309735;22;20180;-81
2021/08/30 13:49:10;;;;;;;5.70;3.17;;;22.80;99.90;;;;;;6309622;22;20181;-80
2021/08/30 13:51:38;;;;;;;5.07;2.80;;;22.80;99.90;;;;;;6311302;22;20194;-80
2021/08/30 13:54:05;;;;;;;7.07;2.72;;;22.60;99.90;;;;;;6309515;22;20184;-80
2021/08/30 13:56:31;;;;;;;4.65;3.00;;;22.60;99.90;;;;;;6308395;22;20261;-79
2021/08/30 13:59:00;;;;;;;4.72;2.50;;;22.50;99.90;;;;;;6308254;22;20174;-79
2021/08/30 14:01:27;;;;;;;5.95;2.60;;;22.40;99.90;;;;;;6309717;22;20202;-79
2021/08/30 14:03:53;;;;;;;4.47;3.03;;;22.40;99.90;;;;;;6309805;22;20504;-80
2021/08/30 14:06:20;;;;;;;4.30;2.78;;;22.50;99.90;;;;;;6308987;22;20469;-79
2021/08/30 14:08:47;;;;;;;4.25;2.40;;;22.50;99.90;;;;;;6309236;22;20174;-78
2021/08/30 14:11:14;;;;;;;5.22;2.60;;;22.50;99.90;;;;;;6309105;22;20210;-79
2021/08/30 14:13:41;;;;;;;5.80;2.45;;;22.60;99.90;;;;;;6309358;22;20178;-79
2021/08/30 14:16:09;;;;;;;5.55;2.67;;;22.80;99.90;;;;;;6309457;22;20174;-78
2021/08/30 14:18:36;;;;;;;6.97;2.80;;;22.80;99.90;;;;;;6309363;22;20220;-78
2021/08/30 14:21:03;;;;;;;3.22;2.28;;;23.00;99.90;;;;;;6308571;22;20628;-79
2021/08/30 14:23:31;;;;;;;5.80;2.90;;;23.00;99.90;;;;;;6309338;22;20257;-81
2021/08/30 14:25:58;;;;;;;4.93;2.80;;;22.90;99.90;;;;;;6308887;22;20501;-76
2021/08/30 14:28:26;;;;;;;5.63;2.60;;;22.70;99.90;;;;;;6309272;22;20232;-79
2021/08/30 14:30:52;;;;;;;5.18;2.67;;;22.60;99.90;;;;;;6308618;22;20664;-79
2021/08/30 14:33:20;;;;;;;6.75;2.95;;;22.70;99.90;;;;;;6308785;22;20174;-79
2021/08/30 14:35:47;;;;;;;3.67;2.40;;;22.80;99.90;;;;;;6308821;22;20174;-80
2021/08/30 14:38:14;;;;;;;6.28;2.85;;;22.70;99.90;;;;;;6308815;22;20174;-79
2021/08/30 14:40:43;;;;;;;3.67;2.25;;;22.70;99.90;;;;;;6308683;22;20816;-80
2021/08/30 14:43:09;;;;;;;6.13;3.10;;;22.70;99.90;;;;;;6308358;22;20178;-75
2021/08/30 14:45:37;;;;;;;5.20;2.78;;;22.70;99.90;;;;;;6303143;22;20196;-76
2021/08/30 14:48:04;;;;;;;5.57;2.72;;;22.60;99.90;;;;;;6306621;22;20197;-80
2021/08/30 14:50:32;;;;;;;3.85;2.55;;;22.60;99.90;;;;;;6305884;22;20281;-75
2021/08/30 14:52:59;;;;;;;7.03;2.83;;;22.50;99.90;;;;;;6280169;22;20293;-73
2021/08/30 14:55:26;;;;;;;4.35;2.90;;;22.40;99.90;;;;;;6306122;22;20632;-73
2021/08/30 14:57:53;;;;;;;3.78;2.50;;;22.20;99.90;;;;;;6307109;22;20181;-74
2021/08/30 15:00:20;;;;;;;4.55;2.80;;;22.20;99.90;;;;;;6306600;22;20178;-76
2021/08/30 15:02:47;;;;;;;5.43;3.20;;;22.40;99.90;;;;;;6306785;22;20233;-76
2021/08/30 15:05:14;;;;;;;5.40;3.20;;;22.40;99.90;;;;;;6306932;22;20566;-75
2021/08/30 15:07:43;;;;;;;6.35;3.35;;;22.40;99.90;;;;;;6306930;22;20209;-75
2021/08/30 15:10:10;;;;;;;5.45;3.30;;;22.50;99.90;;;;;;6306885;22;20281;-76
2021/08/30 15:12:40;;;;;;;5.25;3.13;;;22.60;99.90;;;;;;6307817;22;20228;-74
2021/08/30 15:15:10;;;;;;;5.95;3.60;;;22.70;99.90;;;;;;6307508;22;20727;-73
2021/08/30 15:17:37;;;;;;;6.00;3.35;;;22.90;99.90;;;;;;6307270;22;20205;-75
2021/08/30 15:20:05;;;;;;;4.32;2.92;;;22.90;99.90;;;;;;6307810;22;20184;-75
2021/08/30 15:22:31;;;;;;;11.77;3.33;;;22.80;99.90;;;;;;6306626;22;20277;-75
2021/08/30 15:25:00;;;;;;;6.00;2.97;;;22.80;99.90;;;;;;6306612;22;20688;-72
2021/08/30 15:27:30;;;;;;;9.30;4.55;;;22.60;99.90;;;;;;6306291;22;20269;-75
2021/08/30 15:29:57;;;;;;;7.78;3.92;;;22.60;99.90;;;;;;6306400;22;20197;-76
2021/08/30 15:32:26;;;;;;;8.50;3.88;;;22.60;99.90;;;;;;6306509;22;20198;-74
2021/08/30 15:34:53;;;;;;;7.05;4.28;;;22.60;99.90;;;;;;6306775;22;20173;-74
2021/08/30 15:37:20;;;;;;;8.43;4.50;;;22.70;99.90;;;;;;6306874;22;20201;-74
2021/08/30 15:39:47;;;;;;;8.50;4.55;;;22.80;99.90;;;;;;6306149;22;20252;-75
2021/08/30 15:42:17;;;;;;;7.68;4.57;;;22.80;99.90;;;;;;6306505;22;20304;-77
2021/08/30 15:44:43;;;;;;;10.45;4.82;;;22.70;99.90;;;;;;6305851;22;20598;-71
2021/08/30 15:47:10;;;;;;;6.90;4.05;;;22.70;99.90;;;;;;6306504;22;20181;-72
2021/08/30 15:49:37;;;;;;;8.07;4.35;;;22.70;99.90;;;;;;6306437;22;20237;-75
2021/08/30 15:52:07;;;;;;;32.53;9.32;;;22.60;99.90;;;;;;6306780;22;20272;-79
2021/08/30 15:54:34;;;;;;;11.80;5.20;;;22.60;99.90;;;;;;6307227;22;20180;-73
2021/08/30 15:57:01;;;;;;;11.50;4.30;;;22.60;99.90;;;;;;6307019;22;20261;-74
2021/08/30 15:59:29;;;;;;;12.60;4.60;;;22.60;99.90;;;;;;6306640;22;20257;-74
2021/08/30 16:01:57;;;;;;;11.48;4.38;;;22.40;99.90;;;;;;6306802;22;20269;-75
2021/08/30 16:04:24;;;;;;;10.30;4.88;;;22.30;99.90;;;;;;6307080;22;20638;-80
2021/08/30 16:06:51;;;;;;;9.13;4.20;;;22.10;99.90;;;;;;6306531;22;20178;-74
2021/08/30 16:09:20;;;;;;;12.07;5.55;;;22.10;99.90;;;;;;6306115;22;20261;-75
2021/08/30 16:11:47;;;;;;;8.85;4.63;;;22.00;99.90;;;;;;6305963;22;20732;-75
2021/08/30 16:14:14;;;;;;;9.65;4.03;;;22.10;99.90;;;;;;6305881;22;20550;-75
2021/08/30 16:16:43;;;;;;;7.15;4.13;;;22.00;99.90;;;;;;6306309;22;20174;-76
2021/08/30 16:19:10;;;;;;;6.70;3.88;;;21.90;99.90;;;;;;6306417;22;20265;-73
2021/08/30 16:21:38;;;;;;;9.43;4.88;;;21.90;99.90;;;;;;6306133;22;20285;-75
2021/08/30 16:24:05;;;;;;;8.00;4.35;;;21.90;99.90;;;;;;6306085;22;20205;-75
2021/08/30 16:26:33;;;;;;;13.00;4.90;;;21.90;99.90;;;;;;6305722;22;20174;-74
2021/08/30 16:29:00;;;;;;;9.60;5.07;;;22.00;99.90;;;;;;6306170;22;20688;-75
2021/08/30 16:31:28;;;;;;;11.70;5.00;;;22.00;99.90;;;;;;6306179;22;20210;-73
2021/08/30 16:33:57;;;;;;;8.30;4.57;;;21.90;99.90;;;;;;6305941;22;20236;-74
2021/08/30 16:36:24;;;;;;;8.77;5.45;;;21.80;99.90;;;;;;6301775;22;20181;-73
2021/08/30 16:38:52;;;;;;;9.15;5.43;;;21.80;99.90;;;;;;6307614;22;20178;-74
2021/08/30 16:41:20;;;;;;;10.63;5.22;;;21.70;99.90;;;;;;6307402;22;20656;-75
2021/08/30 16:43:47;;;;;;;11.02;5.30;;;21.60;99.90;;;;;;6300163;22;20257;-72
2021/08/30 16:46:14;;;;;;;9.50;4.70;;;21.60;99.90;;;;;;6305987;22;20174;-72
2021/08/30 16:48:41;;;;;;;9.27;4.20;;;21.40;99.90;;;;;;6306347;22;20174;-72
2021/08/30 16:51:09;;;;;;;9.20;4.50;;;21.30;99.90;;;;;;6304129;22;20244;-76
2021/08/30 16:53:36;;;;;;;8.02;3.97;;;21.30;99.90;;;;;;6305044;22;20232;-75
2021/08/30 16:56:03;;;;;;;8.80;4.22;;;21.10;99.90;;;;;;6305904;22;20201;-76
2021/08/30 16:58:29;;;;;;;7.38;4.10;;;21.00;99.90;;;;;;6305224;22;20209;-73
2021/08/30 17:00:56;;;;;;;7.93;3.97;;;20.90;99.90;;;;;;6305926;22;20257;-75
2021/08/30 17:03:23;;;;;;;11.20;4.55;;;21.00;99.90;;;;;;6302399;22;20526;-76
2021/08/30 17:05:50;;;;;;;6.47;3.80;;;21.00;99.90;;;;;;6304243;22;20559;-74
2021/08/30 17:08:19;;;;;;;6.00;3.88;;;21.10;99.90;;;;;;6305593;22;20180;-72
2021/08/30 17:10:46;;;;;;;6.20;3.72;;;21.00;99.90;;;;;;6305924;22;20202;-80
2021/08/30 17:13:13;;;;;;;10.38;3.67;;;21.00;99.90;;;;;;6305010;22;20180;-74
2021/08/30 17:15:41;;;;;;;6.38;3.35;;;21.10;99.90;;;;;;6305459;22;20256;-72
2021/08/30 17:18:09;;;;;;;9.05;3.85;;;21.20;99.90;;;;;;6304969;22;20256;-74
2021/08/30 17:20:37;;;;;;;6.40;3.38;;;21.20;99.90;;;;;;6304586;22;20181;-72
2021/08/30 17:23:03;;;;;;;7.70;3.45;;;21.30;99.90;;;;;;6305655;22;20181;-73
2021/08/30 17:25:32;;;;;;;5.80;3.10;;;21.30;99.90;;;;;;6305581;22;20174;-74
2021/08/30 17:27:59;;;;;;;6.47;3.00;;;21.30;99.90;;;;;;6306220;22;20553;-74
2021/08/30 17:30:31;;;;;;;6.05;3.17;;;21.20;99.90;;;;;;6305725;22;20282;-74
